sensor_id;sensor_type;location;lat;lon;timestamp;P1;durP1;ratioP1;P2;durP2;ratioP2
23561;SDS011;11959;49.418;8.728;2023-11-19T00:01:22;3.20;;;2.00;;
23561;SDS011;11959;49.418;8.728;2023-11-19T00:03:48;3.67;;;1.77;;
23561;SDS011;11959;49.418;8.728;2023-11-19T00:06:14;3.78;;;1.80;;
23561;SDS011;11959;49.418;8.728;2023-11-19T00:08:41;2.22;;;1.75;;
23561;SDS011;11959;49.418;8.728;2023-11-19T00:11:08;2.33;;;1.65;;
23561;SDS011;11959;49.418;8.728;2023-11-19T00:13:34;2.33;;;1.58;;
23561;SDS011;11959;49.418;8.728;2023-11-19T00:16:00;3.75;;;2.30;;
23561;SDS011;11959;49.418;8.728;2023-11-19T00:18:25;2.28;;;1.55;;
23561;SDS011;11959;49.418;8.728;2023-11-19T00:20:51;2.50;;;1.70;;
23561;SDS011;11959;49.418;8.728;2023-11-19T00:23:16;3.88;;;2.00;;
23561;SDS011;11959;49.418;8.728;2023-11-19T00:25:42;3.78;;;1.70;;
23561;SDS011;11959;49.418;8.728;2023-11-19T00:28:08;2.10;;;1.90;;
23561;SDS011;11959;49.418;8.728;2023-11-19T00:30:33;3.00;;;1.58;;
23561;SDS011;11959;49.418;8.728;2023-11-19T00:32:59;2.78;;;1.60;;
23561;SDS011;11959;49.418;8.728;2023-11-19T00:35:26;2.50;;;1.35;;
23561;SDS011;11959;49.418;8.728;2023-11-19T00:37:51;2.28;;;1.40;;
23561;SDS011;11959;49.418;8.728;2023-11-19T00:40:19;1.40;;;1.17;;
23561;SDS011;11959;49.418;8.728;2023-11-19T00:42:47;1.20;;;1.10;;
23561;SDS011;11959;49.418;8.728;2023-11-19T00:45:13;2.17;;;1.00;;
23561;SDS011;11959;49.418;8.728;2023-11-19T00:47:39;2.17;;;1.00;;
23561;SDS011;11959;49.418;8.728;2023-11-19T00:50:05;1.95;;;0.50;;
23561;SDS011;11959;49.418;8.728;2023-11-19T00:52:32;1.15;;;0.75;;
23561;SDS011;11959;49.418;8.728;2023-11-19T00:54:58;1.05;;;0.50;;
23561;SDS011;11959;49.418;8.728;2023-11-19T00:57:24;0.50;;;0.40;;
23561;SDS011;11959;49.418;8.728;2023-11-19T00:59:51;0.60;;;0.50;;
23561;SDS011;11959;49.418;8.728;2023-11-19T01:02:17;0.70;;;0.55;;
23561;SDS011;11959;49.418;8.728;2023-11-19T01:04:43;0.80;;;0.60;;
23561;SDS011;11959;49.418;8.728;2023-11-19T01:07:09;0.40;;;0.40;;
23561;SDS011;11959;49.418;8.728;2023-11-19T01:09:38;0.90;;;0.60;;
23561;SDS011;11959;49.418;8.728;2023-11-19T01:12:04;1.17;;;0.45;;
23561;SDS011;11959;49.418;8.728;2023-11-19T01:14:30;1.75;;;0.60;;
23561;SDS011;11959;49.418;8.728;2023-11-19T01:16:55;0.70;;;0.50;;
23561;SDS011;11959;49.418;8.728;2023-11-19T01:19:22;1.23;;;0.60;;
23561;SDS011;11959;49.418;8.728;2023-11-19T01:21:51;0.95;;;0.55;;
23561;SDS011;11959;49.418;8.728;2023-11-19T01:24:16;2.75;;;0.52;;
23561;SDS011;11959;49.418;8.728;2023-11-19T01:26:43;1.15;;;0.60;;
23561;SDS011;11959;49.418;8.728;2023-11-19T01:29:10;0.98;;;0.38;;
23561;SDS011;11959;49.418;8.728;2023-11-19T01:31:39;1.23;;;0.57;;
23561;SDS011;11959;49.418;8.728;2023-11-19T01:34:08;1.88;;;0.57;;
23561;SDS011;11959;49.418;8.728;2023-11-19T01:36:34;0.73;;;0.52;;
23561;SDS011;11959;49.418;8.728;2023-11-19T01:39:00;0.60;;;0.50;;
23561;SDS011;11959;49.418;8.728;2023-11-19T01:41:26;0.90;;;0.50;;
23561;SDS011;11959;49.418;8.728;2023-11-19T01:43:52;0.70;;;0.50;;
23561;SDS011;11959;49.418;8.728;2023-11-19T01:46:17;0.70;;;0.57;;
23561;SDS011;11959;49.418;8.728;2023-11-19T01:48:45;0.50;;;0.40;;
23561;SDS011;11959;49.418;8.728;2023-11-19T01:51:14;0.70;;;0.55;;
23561;SDS011;11959;49.418;8.728;2023-11-19T01:53:41;0.77;;;0.60;;
23561;SDS011;11959;49.418;8.728;2023-11-19T01:56:08;1.33;;;0.60;;
23561;SDS011;11959;49.418;8.728;2023-11-19T01:58:36;0.77;;;0.63;;
23561;SDS011;11959;49.418;8.728;2023-11-19T02:01:04;1.77;;;0.80;;
23561;SDS011;11959;49.418;8.728;2023-11-19T02:03:33;0.60;;;0.50;;
23561;SDS011;11959;49.418;8.728;2023-11-19T02:05:59;0.50;;;0.50;;
23561;SDS011;11959;49.418;8.728;2023-11-19T02:08:25;2.20;;;0.70;;
23561;SDS011;11959;49.418;8.728;2023-11-19T02:10:51;0.85;;;0.50;;
23561;SDS011;11959;49.418;8.728;2023-11-19T02:13:18;1.23;;;0.70;;
23561;SDS011;11959;49.418;8.728;2023-11-19T02:15:44;1.10;;;0.75;;
23561;SDS011;11959;49.418;8.728;2023-11-19T02:18:26;1.30;;;1.00;;
23561;SDS011;11959;49.418;8.728;2023-11-19T02:20:55;0.90;;;0.80;;
23561;SDS011;11959;49.418;8.728;2023-11-19T02:23:21;1.80;;;1.25;;
23561;SDS011;11959;49.418;8.728;2023-11-19T02:28:22;1.83;;;1.48;;
23561;SDS011;11959;49.418;8.728;2023-11-19T02:30:48;2.40;;;1.52;;
23561;SDS011;11959;49.418;8.728;2023-11-19T02:33:14;1.83;;;1.48;;
23561;SDS011;11959;49.418;8.728;2023-11-19T02:35:40;2.13;;;1.58;;
23561;SDS011;11959;49.418;8.728;2023-11-19T02:38:06;3.35;;;1.90;;
23561;SDS011;11959;49.418;8.728;2023-11-19T02:40:32;2.72;;;1.83;;
23561;SDS011;11959;49.418;8.728;2023-11-19T02:42:58;1.95;;;1.60;;
23561;SDS011;11959;49.418;8.728;2023-11-19T02:45:24;2.30;;;1.77;;
23561;SDS011;11959;49.418;8.728;2023-11-19T02:47:50;1.67;;;1.50;;
23561;SDS011;11959;49.418;8.728;2023-11-19T02:50:17;1.77;;;1.40;;
23561;SDS011;11959;49.418;8.728;2023-11-19T02:52:50;2.20;;;1.30;;
23561;SDS011;11959;49.418;8.728;2023-11-19T02:55:18;2.25;;;1.10;;
23561;SDS011;11959;49.418;8.728;2023-11-19T02:57:44;1.83;;;1.10;;
23561;SDS011;11959;49.418;8.728;2023-11-19T03:02:40;1.25;;;1.15;;
23561;SDS011;11959;49.418;8.728;2023-11-19T03:05:14;1.13;;;1.02;;
23561;SDS011;11959;49.418;8.728;2023-11-19T03:07:41;1.73;;;1.20;;
23561;SDS011;11959;49.418;8.728;2023-11-19T03:10:08;1.00;;;0.90;;
23561;SDS011;11959;49.418;8.728;2023-11-19T03:12:38;2.13;;;1.30;;
23561;SDS011;11959;49.418;8.728;2023-11-19T03:15:07;1.80;;;1.20;;
23561;SDS011;11959;49.418;8.728;2023-11-19T03:17:40;1.10;;;1.00;;
23561;SDS011;11959;49.418;8.728;2023-11-19T03:20:07;1.40;;;1.05;;
23561;SDS011;11959;49.418;8.728;2023-11-19T03:22:39;1.42;;;1.00;;
23561;SDS011;11959;49.418;8.728;2023-11-19T03:25:06;1.20;;;1.10;;
23561;SDS011;11959;49.418;8.728;2023-11-19T03:27:33;1.45;;;1.30;;
23561;SDS011;11959;49.418;8.728;2023-11-19T03:30:04;1.60;;;1.50;;
23561;SDS011;11959;49.418;8.728;2023-11-19T03:32:33;1.95;;;1.38;;
23561;SDS011;11959;49.418;8.728;2023-11-19T03:35:00;2.35;;;1.35;;
23561;SDS011;11959;49.418;8.728;2023-11-19T03:37:26;2.63;;;1.35;;
23561;SDS011;11959;49.418;8.728;2023-11-19T03:39:53;2.83;;;1.50;;
23561;SDS011;11959;49.418;8.728;2023-11-19T03:42:20;2.30;;;1.63;;
23561;SDS011;11959;49.418;8.728;2023-11-19T03:44:46;3.28;;;1.45;;
23561;SDS011;11959;49.418;8.728;2023-11-19T03:47:11;2.67;;;1.63;;
23561;SDS011;11959;49.418;8.728;2023-11-19T03:49:37;2.40;;;1.63;;
23561;SDS011;11959;49.418;8.728;2023-11-19T03:52:03;2.13;;;1.58;;
23561;SDS011;11959;49.418;8.728;2023-11-19T03:54:30;2.50;;;1.60;;
23561;SDS011;11959;49.418;8.728;2023-11-19T03:56:57;2.95;;;1.55;;
23561;SDS011;11959;49.418;8.728;2023-11-19T03:59:25;2.00;;;1.70;;
23561;SDS011;11959;49.418;8.728;2023-11-19T04:01:50;4.50;;;1.67;;
23561;SDS011;11959;49.418;8.728;2023-11-19T04:04:18;1.90;;;1.70;;
23561;SDS011;11959;49.418;8.728;2023-11-19T04:06:44;3.20;;;1.67;;
23561;SDS011;11959;49.418;8.728;2023-11-19T04:09:09;3.90;;;1.80;;
23561;SDS011;11959;49.418;8.728;2023-11-19T04:11:35;2.40;;;1.60;;
23561;SDS011;11959;49.418;8.728;2023-11-19T04:14:01;1.90;;;1.70;;
23561;SDS011;11959;49.418;8.728;2023-11-19T04:16:27;1.98;;;1.77;;
23561;SDS011;11959;49.418;8.728;2023-11-19T04:18:55;2.03;;;1.80;;
23561;SDS011;11959;49.418;8.728;2023-11-19T04:21:21;5.22;;;1.80;;
23561;SDS011;11959;49.418;8.728;2023-11-19T04:23:48;2.80;;;1.70;;
23561;SDS011;11959;49.418;8.728;2023-11-19T04:26:14;3.08;;;1.60;;
23561;SDS011;11959;49.418;8.728;2023-11-19T04:28:40;3.55;;;1.80;;
23561;SDS011;11959;49.418;8.728;2023-11-19T04:31:06;2.67;;;1.38;;
23561;SDS011;11959;49.418;8.728;2023-11-19T04:33:32;2.42;;;1.60;;
23561;SDS011;11959;49.418;8.728;2023-11-19T04:35:58;3.28;;;1.90;;
23561;SDS011;11959;49.418;8.728;2023-11-19T04:38:24;2.10;;;1.60;;
23561;SDS011;11959;49.418;8.728;2023-11-19T04:40:51;2.20;;;1.90;;
23561;SDS011;11959;49.418;8.728;2023-11-19T04:43:17;3.90;;;2.00;;
23561;SDS011;11959;49.418;8.728;2023-11-19T04:45:43;2.65;;;2.00;;
23561;SDS011;11959;49.418;8.728;2023-11-19T04:48:09;2.05;;;1.65;;
23561;SDS011;11959;49.418;8.728;2023-11-19T04:50:34;2.20;;;1.80;;
23561;SDS011;11959;49.418;8.728;2023-11-19T04:53:00;2.97;;;1.88;;
23561;SDS011;11959;49.418;8.728;2023-11-19T04:55:26;2.28;;;1.95;;
23561;SDS011;11959;49.418;8.728;2023-11-19T04:57:53;3.03;;;2.13;;
23561;SDS011;11959;49.418;8.728;2023-11-19T05:00:19;2.28;;;2.05;;
23561;SDS011;11959;49.418;8.728;2023-11-19T05:02:46;2.78;;;2.25;;
23561;SDS011;11959;49.418;8.728;2023-11-19T05:05:12;3.30;;;2.17;;
23561;SDS011;11959;49.418;8.728;2023-11-19T05:07:38;4.15;;;2.30;;
23561;SDS011;11959;49.418;8.728;2023-11-19T05:10:04;4.63;;;2.40;;
23561;SDS011;11959;49.418;8.728;2023-11-19T05:12:31;2.60;;;2.10;;
23561;SDS011;11959;49.418;8.728;2023-11-19T05:14:56;3.25;;;2.33;;
23561;SDS011;11959;49.418;8.728;2023-11-19T05:17:22;4.07;;;2.50;;
23561;SDS011;11959;49.418;8.728;2023-11-19T05:19:48;6.47;;;2.45;;
23561;SDS011;11959;49.418;8.728;2023-11-19T05:22:14;3.47;;;2.58;;
23561;SDS011;11959;49.418;8.728;2023-11-19T05:24:40;3.58;;;2.10;;
23561;SDS011;11959;49.418;8.728;2023-11-19T05:27:06;3.60;;;2.58;;
23561;SDS011;11959;49.418;8.728;2023-11-19T05:29:33;3.15;;;2.63;;
23561;SDS011;11959;49.418;8.728;2023-11-19T05:31:58;6.20;;;2.92;;
23561;SDS011;11959;49.418;8.728;2023-11-19T05:34:24;4.22;;;2.80;;
23561;SDS011;11959;49.418;8.728;2023-11-19T05:36:50;3.33;;;2.25;;
23561;SDS011;11959;49.418;8.728;2023-11-19T05:39:16;2.90;;;2.53;;
23561;SDS011;11959;49.418;8.728;2023-11-19T05:41:43;3.35;;;2.28;;
23561;SDS011;11959;49.418;8.728;2023-11-19T05:44:09;3.58;;;2.45;;
23561;SDS011;11959;49.418;8.728;2023-11-19T05:46:35;4.30;;;2.67;;
23561;SDS011;11959;49.418;8.728;2023-11-19T05:49:05;5.43;;;3.05;;
23561;SDS011;11959;49.418;8.728;2023-11-19T05:51:31;3.42;;;2.42;;
23561;SDS011;11959;49.418;8.728;2023-11-19T05:53:56;5.18;;;2.60;;
23561;SDS011;11959;49.418;8.728;2023-11-19T05:56:22;3.88;;;2.80;;
23561;SDS011;11959;49.418;8.728;2023-11-19T05:58:48;4.78;;;2.13;;
23561;SDS011;11959;49.418;8.728;2023-11-19T06:01:17;4.53;;;2.47;;
23561;SDS011;11959;49.418;8.728;2023-11-19T06:03:42;2.92;;;2.00;;
23561;SDS011;11959;49.418;8.728;2023-11-19T06:06:08;3.33;;;2.50;;
23561;SDS011;11959;49.418;8.728;2023-11-19T06:08:34;4.13;;;2.40;;
23561;SDS011;11959;49.418;8.728;2023-11-19T06:11:00;3.53;;;2.50;;
23561;SDS011;11959;49.418;8.728;2023-11-19T06:13:26;4.25;;;2.63;;
23561;SDS011;11959;49.418;8.728;2023-11-19T06:15:52;3.83;;;2.60;;
23561;SDS011;11959;49.418;8.728;2023-11-19T06:18:17;2.42;;;1.88;;
23561;SDS011;11959;49.418;8.728;2023-11-19T06:20:45;4.15;;;2.20;;
23561;SDS011;11959;49.418;8.728;2023-11-19T06:23:10;3.45;;;2.75;;
23561;SDS011;11959;49.418;8.728;2023-11-19T06:25:36;2.63;;;1.85;;
23561;SDS011;11959;49.418;8.728;2023-11-19T06:28:02;2.72;;;2.22;;
23561;SDS011;11959;49.418;8.728;2023-11-19T06:30:28;2.78;;;2.00;;
23561;SDS011;11959;49.418;8.728;2023-11-19T06:32:55;4.45;;;2.58;;
23561;SDS011;11959;49.418;8.728;2023-11-19T06:35:21;2.72;;;1.90;;
23561;SDS011;11959;49.418;8.728;2023-11-19T06:37:47;2.35;;;1.80;;
23561;SDS011;11959;49.418;8.728;2023-11-19T06:40:12;2.80;;;2.10;;
23561;SDS011;11959;49.418;8.728;2023-11-19T06:42:40;2.72;;;1.83;;
23561;SDS011;11959;49.418;8.728;2023-11-19T06:45:06;3.05;;;1.75;;
23561;SDS011;11959;49.418;8.728;2023-11-19T06:47:32;3.15;;;1.55;;
23561;SDS011;11959;49.418;8.728;2023-11-19T06:49:58;3.55;;;1.60;;
23561;SDS011;11959;49.418;8.728;2023-11-19T06:52:23;3.10;;;1.77;;
23561;SDS011;11959;49.418;8.728;2023-11-19T06:54:50;4.28;;;1.67;;
23561;SDS011;11959;49.418;8.728;2023-11-19T06:57:15;3.65;;;1.38;;
23561;SDS011;11959;49.418;8.728;2023-11-19T06:59:41;2.40;;;1.15;;
23561;SDS011;11959;49.418;8.728;2023-11-19T07:02:07;1.60;;;1.27;;
23561;SDS011;11959;49.418;8.728;2023-11-19T07:04:34;3.35;;;1.42;;
23561;SDS011;11959;49.418;8.728;2023-11-19T07:06:59;3.50;;;1.80;;
23561;SDS011;11959;49.418;8.728;2023-11-19T07:09:25;2.90;;;1.27;;
23561;SDS011;11959;49.418;8.728;2023-11-19T07:11:52;2.97;;;1.33;;
23561;SDS011;11959;49.418;8.728;2023-11-19T07:14:18;1.77;;;1.10;;
23561;SDS011;11959;49.418;8.728;2023-11-19T07:16:44;1.70;;;1.00;;
23561;SDS011;11959;49.418;8.728;2023-11-19T07:19:11;2.30;;;1.45;;
23561;SDS011;11959;49.418;8.728;2023-11-19T07:21:36;1.10;;;0.80;;
23561;SDS011;11959;49.418;8.728;2023-11-19T07:24:04;1.88;;;1.10;;
23561;SDS011;11959;49.418;8.728;2023-11-19T07:26:31;2.50;;;1.10;;
23561;SDS011;11959;49.418;8.728;2023-11-19T07:28:56;2.30;;;1.30;;
23561;SDS011;11959;49.418;8.728;2023-11-19T07:31:23;1.50;;;1.00;;
23561;SDS011;11959;49.418;8.728;2023-11-19T07:33:49;4.00;;;1.30;;
23561;SDS011;11959;49.418;8.728;2023-11-19T07:36:15;2.10;;;1.13;;
23561;SDS011;11959;49.418;8.728;2023-11-19T07:38:41;2.22;;;1.15;;
23561;SDS011;11959;49.418;8.728;2023-11-19T07:41:07;1.48;;;1.05;;
23561;SDS011;11959;49.418;8.728;2023-11-19T07:43:37;2.13;;;1.02;;
23561;SDS011;11959;49.418;8.728;2023-11-19T07:46:11;2.60;;;1.60;;
23561;SDS011;11959;49.418;8.728;2023-11-19T07:48:40;1.17;;;1.00;;
23561;SDS011;11959;49.418;8.728;2023-11-19T07:51:07;1.35;;;0.93;;
23561;SDS011;11959;49.418;8.728;2023-11-19T07:53:33;1.02;;;0.90;;
23561;SDS011;11959;49.418;8.728;2023-11-19T07:55:59;2.03;;;1.20;;
23561;SDS011;11959;49.418;8.728;2023-11-19T07:58:25;3.33;;;1.00;;
23561;SDS011;11959;49.418;8.728;2023-11-19T08:00:51;1.20;;;0.82;;
23561;SDS011;11959;49.418;8.728;2023-11-19T08:03:17;1.08;;;0.80;;
23561;SDS011;11959;49.418;8.728;2023-11-19T08:05:44;1.70;;;0.82;;
23561;SDS011;11959;49.418;8.728;2023-11-19T08:08:11;1.38;;;0.60;;
23561;SDS011;11959;49.418;8.728;2023-11-19T08:10:36;1.48;;;0.68;;
23561;SDS011;11959;49.418;8.728;2023-11-19T08:13:02;1.30;;;0.77;;
23561;SDS011;11959;49.418;8.728;2023-11-19T08:15:28;0.93;;;0.63;;
23561;SDS011;11959;49.418;8.728;2023-11-19T08:17:54;1.42;;;0.80;;
23561;SDS011;11959;49.418;8.728;2023-11-19T08:20:20;1.67;;;0.90;;
23561;SDS011;11959;49.418;8.728;2023-11-19T08:22:45;2.92;;;1.10;;
23561;SDS011;11959;49.418;8.728;2023-11-19T08:25:11;1.52;;;0.90;;
23561;SDS011;11959;49.418;8.728;2023-11-19T08:27:36;2.17;;;1.15;;
23561;SDS011;11959;49.418;8.728;2023-11-19T08:30:02;1.88;;;0.88;;
23561;SDS011;11959;49.418;8.728;2023-11-19T08:32:29;2.95;;;1.05;;
23561;SDS011;11959;49.418;8.728;2023-11-19T08:34:55;2.15;;;1.02;;
23561;SDS011;11959;49.418;8.728;2023-11-19T08:37:21;1.45;;;1.08;;
23561;SDS011;11959;49.418;8.728;2023-11-19T08:39:47;1.77;;;1.08;;
23561;SDS011;11959;49.418;8.728;2023-11-19T08:42:13;2.20;;;1.10;;
23561;SDS011;11959;49.418;8.728;2023-11-19T08:44:39;2.42;;;0.80;;
23561;SDS011;11959;49.418;8.728;2023-11-19T08:47:08;2.60;;;1.10;;
23561;SDS011;11959;49.418;8.728;2023-11-19T08:49:34;2.08;;;1.13;;
23561;SDS011;11959;49.418;8.728;2023-11-19T08:52:00;3.22;;;1.15;;
23561;SDS011;11959;49.418;8.728;2023-11-19T08:54:26;2.25;;;1.10;;
23561;SDS011;11959;49.418;8.728;2023-11-19T08:56:51;1.95;;;1.17;;
23561;SDS011;11959;49.418;8.728;2023-11-19T08:59:17;2.03;;;1.27;;
23561;SDS011;11959;49.418;8.728;2023-11-19T09:01:44;2.10;;;1.10;;
23561;SDS011;11959;49.418;8.728;2023-11-19T09:04:10;3.75;;;1.48;;
23561;SDS011;11959;49.418;8.728;2023-11-19T09:06:36;2.85;;;1.20;;
23561;SDS011;11959;49.418;8.728;2023-11-19T09:09:02;2.50;;;1.02;;
23561;SDS011;11959;49.418;8.728;2023-11-19T09:11:28;2.75;;;1.17;;
23561;SDS011;11959;49.418;8.728;2023-11-19T09:13:55;5.97;;;1.20;;
23561;SDS011;11959;49.418;8.728;2023-11-19T09:16:20;1.88;;;1.17;;
23561;SDS011;11959;49.418;8.728;2023-11-19T09:18:46;3.53;;;1.15;;
23561;SDS011;11959;49.418;8.728;2023-11-19T09:21:12;3.13;;;1.33;;
23561;SDS011;11959;49.418;8.728;2023-11-19T09:23:38;3.15;;;1.35;;
23561;SDS011;11959;49.418;8.728;2023-11-19T09:26:06;3.55;;;1.40;;
23561;SDS011;11959;49.418;8.728;2023-11-19T09:28:35;2.13;;;1.10;;
23561;SDS011;11959;49.418;8.728;2023-11-19T09:31:01;3.45;;;1.27;;
23561;SDS011;11959;49.418;8.728;2023-11-19T09:33:29;5.07;;;1.55;;
23561;SDS011;11959;49.418;8.728;2023-11-19T09:38:24;1.95;;;1.08;;
23561;SDS011;11959;49.418;8.728;2023-11-19T09:40:50;1.55;;;1.10;;
23561;SDS011;11959;49.418;8.728;2023-11-19T09:43:16;2.55;;;1.02;;
23561;SDS011;11959;49.418;8.728;2023-11-19T09:45:49;1.95;;;1.30;;
23561;SDS011;11959;49.418;8.728;2023-11-19T09:48:18;3.88;;;1.30;;
23561;SDS011;11959;49.418;8.728;2023-11-19T09:50:48;2.97;;;1.20;;
23561;SDS011;11959;49.418;8.728;2023-11-19T09:53:14;2.20;;;1.27;;
23561;SDS011;11959;49.418;8.728;2023-11-19T09:55:40;3.50;;;1.20;;
23561;SDS011;11959;49.418;8.728;2023-11-19T09:58:06;2.05;;;1.20;;
23561;SDS011;11959;49.418;8.728;2023-11-19T10:00:33;3.08;;;1.20;;
23561;SDS011;11959;49.418;8.728;2023-11-19T10:02:59;1.98;;;0.85;;
23561;SDS011;11959;49.418;8.728;2023-11-19T10:05:25;1.88;;;1.10;;
23561;SDS011;11959;49.418;8.728;2023-11-19T10:07:51;5.70;;;1.83;;
23561;SDS011;11959;49.418;8.728;2023-11-19T10:10:17;3.72;;;1.40;;
23561;SDS011;11959;49.418;8.728;2023-11-19T10:12:45;2.95;;;1.10;;
23561;SDS011;11959;49.418;8.728;2023-11-19T10:15:15;3.55;;;1.20;;
23561;SDS011;11959;49.418;8.728;2023-11-19T10:17:46;2.03;;;1.05;;
23561;SDS011;11959;49.418;8.728;2023-11-19T10:20:11;3.00;;;1.38;;
23561;SDS011;11959;49.418;8.728;2023-11-19T10:22:37;4.07;;;1.33;;
23561;SDS011;11959;49.418;8.728;2023-11-19T10:25:03;3.63;;;1.60;;
23561;SDS011;11959;49.418;8.728;2023-11-19T10:27:30;2.63;;;1.10;;
23561;SDS011;11959;49.418;8.728;2023-11-19T10:29:59;2.60;;;1.20;;
23561;SDS011;11959;49.418;8.728;2023-11-19T10:32:25;4.53;;;1.50;;
23561;SDS011;11959;49.418;8.728;2023-11-19T10:34:50;3.13;;;1.30;;
23561;SDS011;11959;49.418;8.728;2023-11-19T10:37:28;2.85;;;1.40;;
23561;SDS011;11959;49.418;8.728;2023-11-19T10:39:57;2.85;;;1.30;;
23561;SDS011;11959;49.418;8.728;2023-11-19T10:42:23;4.05;;;1.40;;
23561;SDS011;11959;49.418;8.728;2023-11-19T10:44:49;4.60;;;1.23;;
23561;SDS011;11959;49.418;8.728;2023-11-19T10:47:15;3.38;;;1.20;;
23561;SDS011;11959;49.418;8.728;2023-11-19T10:49:43;3.65;;;1.20;;
23561;SDS011;11959;49.418;8.728;2023-11-19T10:52:10;2.03;;;1.15;;
23561;SDS011;11959;49.418;8.728;2023-11-19T10:54:40;2.55;;;1.17;;
23561;SDS011;11959;49.418;8.728;2023-11-19T10:57:09;2.92;;;1.20;;
23561;SDS011;11959;49.418;8.728;2023-11-19T10:59:41;3.97;;;1.27;;
23561;SDS011;11959;49.418;8.728;2023-11-19T11:02:09;2.72;;;1.15;;
23561;SDS011;11959;49.418;8.728;2023-11-19T11:04:39;1.95;;;1.20;;
23561;SDS011;11959;49.418;8.728;2023-11-19T11:07:07;3.10;;;1.00;;
23561;SDS011;11959;49.418;8.728;2023-11-19T11:09:34;4.45;;;1.10;;
23561;SDS011;11959;49.418;8.728;2023-11-19T11:12:00;2.42;;;0.90;;
23561;SDS011;11959;49.418;8.728;2023-11-19T11:14:28;1.95;;;1.00;;
23561;SDS011;11959;49.418;8.728;2023-11-19T11:16:55;3.80;;;1.13;;
23561;SDS011;11959;49.418;8.728;2023-11-19T11:19:23;1.65;;;1.00;;
23561;SDS011;11959;49.418;8.728;2023-11-19T11:21:52;2.38;;;1.10;;
23561;SDS011;11959;49.418;8.728;2023-11-19T11:29:54;3.97;;;1.05;;
23561;SDS011;11959;49.418;8.728;2023-11-19T11:38:08;6.38;;;1.92;;
23561;SDS011;11959;49.418;8.728;2023-11-19T11:40:34;3.92;;;1.23;;
23561;SDS011;11959;49.418;8.728;2023-11-19T11:43:01;3.25;;;1.02;;
23561;SDS011;11959;49.418;8.728;2023-11-19T11:45:45;2.80;;;1.40;;
23561;SDS011;11959;49.418;8.728;2023-11-19T11:48:12;3.25;;;1.10;;
23561;SDS011;11959;49.418;8.728;2023-11-19T11:50:49;3.10;;;1.25;;
23561;SDS011;11959;49.418;8.728;2023-11-19T11:53:19;3.28;;;1.48;;
23561;SDS011;11959;49.418;8.728;2023-11-19T11:58:13;2.95;;;1.20;;
23561;SDS011;11959;49.418;8.728;2023-11-19T12:00:47;2.20;;;0.95;;
23561;SDS011;11959;49.418;8.728;2023-11-19T12:03:14;1.63;;;0.80;;
23561;SDS011;11959;49.418;8.728;2023-11-19T12:05:43;4.30;;;1.38;;
23561;SDS011;11959;49.418;8.728;2023-11-19T12:08:11;2.33;;;1.20;;
23561;SDS011;11959;49.418;8.728;2023-11-19T12:10:49;2.60;;;0.90;;
23561;SDS011;11959;49.418;8.728;2023-11-19T12:13:16;1.92;;;0.80;;
23561;SDS011;11959;49.418;8.728;2023-11-19T12:18:24;4.03;;;1.17;;
23561;SDS011;11959;49.418;8.728;2023-11-19T12:20:53;3.72;;;1.13;;
23561;SDS011;11959;49.418;8.728;2023-11-19T12:23:19;3.65;;;0.93;;
23561;SDS011;11959;49.418;8.728;2023-11-19T12:25:45;2.17;;;0.95;;
23561;SDS011;11959;49.418;8.728;2023-11-19T12:28:12;2.30;;;1.10;;
23561;SDS011;11959;49.418;8.728;2023-11-19T12:30:39;2.80;;;1.30;;
23561;SDS011;11959;49.418;8.728;2023-11-19T12:33:08;2.17;;;1.00;;
23561;SDS011;11959;49.418;8.728;2023-11-19T12:35:38;3.28;;;1.17;;
23561;SDS011;11959;49.418;8.728;2023-11-19T12:38:04;3.05;;;1.10;;
23561;SDS011;11959;49.418;8.728;2023-11-19T12:40:30;2.83;;;1.27;;
23561;SDS011;11959;49.418;8.728;2023-11-19T12:42:57;2.40;;;1.20;;
23561;SDS011;11959;49.418;8.728;2023-11-19T12:45:24;3.50;;;0.98;;
23561;SDS011;11959;49.418;8.728;2023-11-19T12:47:49;2.78;;;1.10;;
23561;SDS011;11959;49.418;8.728;2023-11-19T12:50:17;2.85;;;0.95;;
23561;SDS011;11959;49.418;8.728;2023-11-19T12:52:54;1.95;;;0.88;;
23561;SDS011;11959;49.418;8.728;2023-11-19T12:55:25;3.47;;;1.25;;
23561;SDS011;11959;49.418;8.728;2023-11-19T13:00:21;2.15;;;0.93;;
23561;SDS011;11959;49.418;8.728;2023-11-19T13:02:48;5.05;;;1.30;;
23561;SDS011;11959;49.418;8.728;2023-11-19T13:05:22;3.15;;;0.88;;
23561;SDS011;11959;49.418;8.728;2023-11-19T13:08:03;3.58;;;1.10;;
23561;SDS011;11959;49.418;8.728;2023-11-19T13:10:34;3.45;;;0.73;;
23561;SDS011;11959;49.418;8.728;2023-11-19T13:13:18;2.33;;;0.90;;
23561;SDS011;11959;49.418;8.728;2023-11-19T13:15:44;6.03;;;1.23;;
23561;SDS011;11959;49.418;8.728;2023-11-19T13:18:10;4.05;;;1.27;;
23561;SDS011;11959;49.418;8.728;2023-11-19T13:20:37;2.03;;;0.55;;
23561;SDS011;11959;49.418;8.728;2023-11-19T13:23:04;3.38;;;0.90;;
23561;SDS011;11959;49.418;8.728;2023-11-19T13:25:30;3.47;;;0.88;;
23561;SDS011;11959;49.418;8.728;2023-11-19T13:27:59;2.28;;;1.05;;
23561;SDS011;11959;49.418;8.728;2023-11-19T13:30:25;3.80;;;0.98;;
23561;SDS011;11959;49.418;8.728;2023-11-19T13:32:51;3.67;;;0.90;;
23561;SDS011;11959;49.418;8.728;2023-11-19T13:35:20;3.92;;;1.20;;
23561;SDS011;11959;49.418;8.728;2023-11-19T13:37:47;4.68;;;1.40;;
23561;SDS011;11959;49.418;8.728;2023-11-19T13:40:13;2.90;;;1.05;;
23561;SDS011;11959;49.418;8.728;2023-11-19T13:42:43;4.80;;;1.10;;
23561;SDS011;11959;49.418;8.728;2023-11-19T13:45:10;2.85;;;0.88;;
23561;SDS011;11959;49.418;8.728;2023-11-19T13:47:40;2.92;;;1.10;;
23561;SDS011;11959;49.418;8.728;2023-11-19T13:50:11;4.25;;;0.90;;
23561;SDS011;11959;49.418;8.728;2023-11-19T13:55:08;4.22;;;0.95;;
23561;SDS011;11959;49.418;8.728;2023-11-19T13:57:35;2.65;;;0.98;;
23561;SDS011;11959;49.418;8.728;2023-11-19T14:00:02;3.95;;;0.75;;
23561;SDS011;11959;49.418;8.728;2023-11-19T14:02:35;3.65;;;1.25;;
23561;SDS011;11959;49.418;8.728;2023-11-19T14:05:01;4.88;;;1.08;;
23561;SDS011;11959;49.418;8.728;2023-11-19T14:07:26;4.72;;;0.90;;
23561;SDS011;11959;49.418;8.728;2023-11-19T14:09:52;2.83;;;0.70;;
23561;SDS011;11959;49.418;8.728;2023-11-19T14:12:19;2.90;;;0.85;;
23561;SDS011;11959;49.418;8.728;2023-11-19T14:14:45;2.92;;;0.70;;
23561;SDS011;11959;49.418;8.728;2023-11-19T14:17:11;4.28;;;0.70;;
23561;SDS011;11959;49.418;8.728;2023-11-19T14:19:36;4.97;;;1.02;;
23561;SDS011;11959;49.418;8.728;2023-11-19T14:22:04;2.85;;;1.00;;
23561;SDS011;11959;49.418;8.728;2023-11-19T14:24:30;2.60;;;0.82;;
23561;SDS011;11959;49.418;8.728;2023-11-19T14:26:56;4.22;;;1.10;;
23561;SDS011;11959;49.418;8.728;2023-11-19T14:29:23;4.85;;;1.00;;
23561;SDS011;11959;49.418;8.728;2023-11-19T14:31:51;5.05;;;0.93;;
23561;SDS011;11959;49.418;8.728;2023-11-19T14:34:17;3.03;;;1.02;;
23561;SDS011;11959;49.418;8.728;2023-11-19T14:36:44;2.58;;;0.93;;
23561;SDS011;11959;49.418;8.728;2023-11-19T14:39:10;2.97;;;0.80;;
23561;SDS011;11959;49.418;8.728;2023-11-19T14:41:35;5.45;;;1.05;;
23561;SDS011;11959;49.418;8.728;2023-11-19T14:44:01;3.40;;;0.90;;
23561;SDS011;11959;49.418;8.728;2023-11-19T14:46:28;4.63;;;1.00;;
23561;SDS011;11959;49.418;8.728;2023-11-19T14:48:54;5.28;;;1.17;;
23561;SDS011;11959;49.418;8.728;2023-11-19T14:51:20;5.80;;;1.20;;
23561;SDS011;11959;49.418;8.728;2023-11-19T14:53:46;4.95;;;0.90;;
23561;SDS011;11959;49.418;8.728;2023-11-19T14:56:12;3.20;;;0.80;;
23561;SDS011;11959;49.418;8.728;2023-11-19T14:58:38;4.57;;;1.00;;
23561;SDS011;11959;49.418;8.728;2023-11-19T15:01:04;3.00;;;1.08;;
23561;SDS011;11959;49.418;8.728;2023-11-19T15:03:30;3.78;;;1.30;;
23561;SDS011;11959;49.418;8.728;2023-11-19T15:05:56;3.03;;;0.98;;
23561;SDS011;11959;49.418;8.728;2023-11-19T15:08:22;3.72;;;1.30;;
23561;SDS011;11959;49.418;8.728;2023-11-19T15:10:47;2.22;;;1.10;;
23561;SDS011;11959;49.418;8.728;2023-11-19T15:13:13;3.25;;;1.00;;
23561;SDS011;11959;49.418;8.728;2023-11-19T15:15:39;4.00;;;1.02;;